SENIL ESMQ-ESMQ

Flight info

Callsign SENIL
Flight time 1h 30m
Altitude 1500
Route VFR
Aircraft DA40/L-SFG/S

Departure

Time 2026-05-06 17:11
Airport Kalmar Airport (ESMQ)

Arrival

Time 2026-05-06 18:41
Airport Kalmar Airport (ESMQ)
Time Latitude Longitude Altitude Speed Heading
2026-05-06 16:57 56.67981 16.28143 14 ft 0 kts
2026-05-06 17:06 56.68001 16.28170 14 ft 6 kts 63°
2026-05-06 17:06 56.67993 16.28234 14 ft 9 kts 127°
2026-05-06 17:06 56.67953 16.28327 14 ft 11 kts 131°
2026-05-06 17:07 56.67910 16.28467 14 ft 14 kts 105°
2026-05-06 17:07 56.67882 16.28625 14 ft 12 kts 109°
2026-05-06 17:07 56.67865 16.28771 15 ft 11 kts 92°
2026-05-06 17:07 56.67878 16.28918 15 ft 10 kts 72°
2026-05-06 17:08 56.67862 16.28996 15 ft 10 kts 102°
2026-05-06 17:08 56.67898 16.29108 15 ft 13 kts 44°
2026-05-06 17:08 56.67933 16.29166 15 ft 0 kts 15°
2026-05-06 17:10 56.67956 16.29197 15 ft 11 kts 41°
2026-05-06 17:10 56.68017 16.29258 14 ft 6 kts
2026-05-06 17:10 56.68108 16.29180 14 ft 38 kts 330°
2026-05-06 17:11 56.68482 16.28816 106 ft 70 kts 336°
2026-05-06 17:11 56.68929 16.28415 371 ft 73 kts 340°
2026-05-06 17:11 56.69383 16.28028 650 ft 73 kts 348°
2026-05-06 17:11 56.69852 16.28200 857 ft 75 kts 50°
2026-05-06 17:12 56.69886 16.29080 1097 ft 75 kts 108°
2026-05-06 17:12 56.69661 16.29993 1236 ft 86 kts 110°
2026-05-06 17:12 56.69407 16.31076 1284 ft 101 kts 107°
2026-05-06 17:12 56.69169 16.32332 1280 ft 108 kts 105°
2026-05-06 17:13 56.68908 16.33635 1285 ft 112 kts 107°
2026-05-06 17:13 56.68666 16.34979 1266 ft 110 kts 103°
2026-05-06 17:13 56.68484 16.36285 1242 ft 105 kts 101°
2026-05-06 17:13 56.68350 16.37557 1230 ft 100 kts 97°
2026-05-06 17:14 56.68221 16.38762 1235 ft 96 kts 99°
2026-05-06 17:14 56.68083 16.39938 1207 ft 94 kts 97°
2026-05-06 17:14 56.68024 16.41146 1274 ft 98 kts 90°
2026-05-06 17:14 56.68011 16.42379 1502 ft 96 kts 89°
2026-05-06 17:15 56.68028 16.43596 1704 ft 96 kts 84°
2026-05-06 17:15 56.68096 16.44816 1852 ft 99 kts 82°
2026-05-06 17:15 56.68235 16.46044 2015 ft 99 kts 73°
2026-05-06 17:15 56.68479 16.47231 2137 ft 102 kts 68°
2026-05-06 17:16 56.68781 16.48394 2290 ft 102 kts 64°
2026-05-06 17:16 56.69176 16.49497 2433 ft 106 kts 52°
2026-05-06 17:16 56.69724 16.50415 2495 ft 111 kts 43°
2026-05-06 17:16 56.70324 16.51301 2529 ft 110 kts 41°
2026-05-06 17:17 56.70959 16.52103 2515 ft 113 kts 36°
2026-05-06 17:17 56.71635 16.52842 2482 ft 115 kts 33°
2026-05-06 17:17 56.72345 16.53532 2471 ft 115 kts 30°
2026-05-06 17:17 56.73057 16.54161 2459 ft 113 kts 30°
2026-05-06 17:18 56.73758 16.54799 2445 ft 112 kts 31°
2026-05-06 17:18 56.74451 16.55432 2408 ft 112 kts 30°
2026-05-06 17:18 56.75149 16.56027 2357 ft 111 kts 30°
2026-05-06 17:18 56.75837 16.56675 2303 ft 110 kts 32°
2026-05-06 17:19 56.76522 16.57291 2277 ft 108 kts 30°
2026-05-06 17:19 56.77202 16.57866 2261 ft 108 kts 29°
2026-05-06 17:19 56.77895 16.58375 2269 ft 107 kts 26°
2026-05-06 17:19 56.78587 16.58847 2285 ft 106 kts 25°
2026-05-06 17:20 56.79278 16.59302 2259 ft 106 kts 26°
2026-05-06 17:20 56.79954 16.59812 2244 ft 105 kts 30°
2026-05-06 17:20 56.80599 16.60420 2229 ft 105 kts 32°
2026-05-06 17:20 56.81240 16.61063 2231 ft 104 kts 33°
2026-05-06 17:21 56.81874 16.61688 2221 ft 104 kts 32°
2026-05-06 17:21 56.82531 16.62271 2201 ft 106 kts 30°
2026-05-06 17:21 56.83193 16.62847 2211 ft 104 kts 32°
2026-05-06 17:21 56.83817 16.63516 2213 ft 104 kts 35°
2026-05-06 17:22 56.84436 16.64193 2235 ft 103 kts 36°
2026-05-06 17:22 56.85019 16.64948 2217 ft 104 kts 44°
2026-05-06 17:22 56.85491 16.65932 2214 ft 102 kts 54°
2026-05-06 17:22 56.86000 16.66855 2203 ft 104 kts 41°
2026-05-06 17:23 56.86645 16.67443 2204 ft 106 kts 20°
2026-05-06 17:23 56.87390 16.67481 2201 ft 110 kts 358°
2026-05-06 17:23 56.88094 16.66890 2230 ft 116 kts 323°
2026-05-06 17:23 56.88408 16.65529 2297 ft 121 kts 272°
2026-05-06 17:24 56.88007 16.64262 2352 ft 119 kts 205°
2026-05-06 17:24 56.87253 16.64272 2366 ft 107 kts 142°
2026-05-06 17:24 56.86923 16.65349 2409 ft 98 kts 86°
2026-05-06 17:24 56.87274 16.66346 2445 ft 100 kts 32°
2026-05-06 17:25 56.87965 16.66301 2478 ft 111 kts 337°
2026-05-06 17:25 56.88403 16.65093 2486 ft 123 kts 285°
2026-05-06 17:25 56.88426 16.63494 2468 ft 127 kts 270°
2026-05-06 17:25 56.88375 16.61892 2472 ft 126 kts 267°
2026-05-06 17:26 56.88331 16.60294 2474 ft 126 kts 266°
2026-05-06 17:26 56.88200 16.58712 2460 ft 126 kts 258°
2026-05-06 17:26 56.87993 16.57144 2450 ft 127 kts 257°
2026-05-06 17:26 56.87859 16.55566 2469 ft 125 kts 265°
2026-05-06 17:27 56.87750 16.53989 2450 ft 127 kts 262°
2026-05-06 17:27 56.87587 16.52393 2431 ft 128 kts 258°
2026-05-06 17:27 56.87371 16.50819 2427 ft 128 kts 254°
2026-05-06 17:27 56.87108 16.49284 2431 ft 127 kts 253°
2026-05-06 17:28 56.86802 16.47775 2437 ft 126 kts 245°
2026-05-06 17:28 56.86380 16.46385 2465 ft 124 kts 232°
2026-05-06 17:28 56.85807 16.45239 2501 ft 121 kts 219°
2026-05-06 17:28 56.85154 16.44266 2494 ft 122 kts 211°
2026-05-06 17:29 56.84431 16.43476 2502 ft 121 kts 203°
2026-05-06 17:29 56.83677 16.42819 2522 ft 122 kts 199°
2026-05-06 17:29 56.82888 16.42222 2501 ft 124 kts 195°
2026-05-06 17:29 56.82076 16.41656 2494 ft 123 kts 194°
2026-05-06 17:30 56.81279 16.41123 2483 ft 124 kts 195°
2026-05-06 17:30 56.80469 16.40588 2475 ft 124 kts 193°
2026-05-06 17:30 56.79669 16.39996 2479 ft 125 kts 201°
2026-05-06 17:30 56.78885 16.39331 2469 ft 124 kts 197°
2026-05-06 17:31 56.78078 16.38760 2460 ft 124 kts 194°
2026-05-06 17:31 56.77267 16.38239 2468 ft 124 kts 192°
2026-05-06 17:31 56.76448 16.37776 2483 ft 123 kts 193°
2026-05-06 17:31 56.75645 16.37245 2487 ft 122 kts 194°
2026-05-06 17:32 56.74841 16.36749 2482 ft 122 kts 193°
2026-05-06 17:32 56.74041 16.36263 2482 ft 121 kts 192°
2026-05-06 17:32 56.73235 16.35812 2489 ft 120 kts 191°
2026-05-06 17:32 56.72441 16.35371 2524 ft 119 kts 193°
2026-05-06 17:33 56.71652 16.34886 2530 ft 120 kts 192°
2026-05-06 17:33 56.70853 16.34467 2445 ft 119 kts 190°
2026-05-06 17:33 56.70069 16.34072 2333 ft 114 kts 187°
2026-05-06 17:33 56.69307 16.33757 2205 ft 111 kts 185°
2026-05-06 17:34 56.68542 16.33517 2057 ft 112 kts 184°
2026-05-06 17:34 56.67788 16.33203 1963 ft 107 kts 181°
2026-05-06 17:34 56.67068 16.33164 1859 ft 101 kts 165°
2026-05-06 17:34 56.66453 16.33595 1776 ft 91 kts 136°
2026-05-06 17:35 56.66108 16.34477 1732 ft 85 kts 101°
2026-05-06 17:35 56.66221 16.35468 1715 ft 84 kts 50°
2026-05-06 17:35 56.66798 16.35606 1579 ft 98 kts 341°
2026-05-06 17:36 56.67631 16.33468 1301 ft 103 kts 311°
2026-05-06 17:36 56.68065 16.32440 1193 ft 101 kts 321°
2026-05-06 17:36 56.68577 16.31616 1111 ft 96 kts 330°
2026-05-06 17:36 56.69130 16.30967 1066 ft 94 kts 337°
2026-05-06 17:37 56.69697 16.30379 1028 ft 94 kts 337°
2026-05-06 17:37 56.70255 16.29789 987 ft 86 kts 336°
2026-05-06 17:37 56.70779 16.29293 926 ft 84 kts 341°
2026-05-06 17:37 56.71300 16.28845 876 ft 81 kts 339°
2026-05-06 17:38 56.71786 16.28339 848 ft 84 kts 319°
2026-05-06 17:38 56.71896 16.27324 755 ft 87 kts 254°
2026-05-06 17:38 56.71642 16.26405 617 ft 79 kts 239°
2026-05-06 17:38 56.71179 16.26061 494 ft 74 kts 148°
2026-05-06 17:39 56.70752 16.26585 439 ft 76 kts 139°
2026-05-06 17:39 56.70299 16.27068 312 ft 73 kts 142°
2026-05-06 17:39 56.69863 16.27501 112 ft 69 kts 142°
2026-05-06 17:39 56.69467 16.27890 17 ft 54 kts 149°
2026-05-06 17:40 56.69038 16.28281 114 ft 77 kts 142°
2026-05-06 17:40 56.68564 16.28759 380 ft 78 kts 143°
2026-05-06 17:40 56.68060 16.29292 611 ft 88 kts 142°
2026-05-06 17:40 56.67575 16.29952 870 ft 87 kts 118°
2026-05-06 17:41 56.67501 16.31000 1036 ft 92 kts 74°
2026-05-06 17:41 56.67820 16.32045 1000 ft 95 kts 41°
2026-05-06 17:41 56.68444 16.32154 974 ft 96 kts 341°
2026-05-06 17:41 56.69002 16.31510 925 ft 93 kts 333°
2026-05-06 17:42 56.69551 16.30898 935 ft 92 kts 334°
2026-05-06 17:42 56.70104 16.30304 927 ft 94 kts 333°
2026-05-06 17:42 56.70665 16.29681 932 ft 95 kts 334°
2026-05-06 17:42 56.71173 16.29094 954 ft 82 kts 333°
2026-05-06 17:43 56.71646 16.28542 956 ft 82 kts 334°
2026-05-06 17:43 56.71986 16.27706 854 ft 88 kts 282°
2026-05-06 17:43 56.71833 16.26674 730 ft 84 kts 242°
2026-05-06 17:43 56.71415 16.26016 577 ft 81 kts 179°
2026-05-06 17:44 56.70947 16.26382 481 ft 74 kts 137°
2026-05-06 17:44 56.70520 16.26848 360 ft 71 kts 143°
2026-05-06 17:44 56.70080 16.27280 242 ft 73 kts 143°
2026-05-06 17:44 56.69639 16.27715 56 ft 71 kts 147°
2026-05-06 17:45 56.69248 16.28089 15 ft 68 kts 153°
2026-05-06 17:45 56.68766 16.28532 183 ft 81 kts 146°
2026-05-06 17:45 56.68255 16.28977 446 ft 84 kts 146°
2026-05-06 17:45 56.67711 16.29464 716 ft 84 kts 147°
2026-05-06 17:46 56.67287 16.30178 990 ft 85 kts 111°
2026-05-06 17:46 56.67314 16.31247 1134 ft 92 kts 58°
2026-05-06 17:46 56.67813 16.32157 1114 ft 109 kts 46°
2026-05-06 17:46 56.68325 16.33085 1078 ft 99 kts 49°
2026-05-06 17:47 56.68770 16.33947 1020 ft 90 kts 51°
2026-05-06 17:47 56.69355 16.34282 721 ft 109 kts 344°
2026-05-06 17:47 56.69804 16.33340 905 ft 106 kts 278°
2026-05-06 17:47 56.69634 16.32048 949 ft 104 kts 249°
2026-05-06 17:48 56.69586 16.30847 969 ft 91 kts 296°
2026-05-06 17:48 56.69986 16.30067 966 ft 85 kts 333°
2026-05-06 17:48 56.70323 16.29678 969 ft 88 kts 334°
2026-05-06 17:48 56.70831 16.29103 1028 ft 83 kts 334°
2026-05-06 17:49 56.71321 16.28575 1017 ft 80 kts 338°
2026-05-06 17:49 56.71776 16.28025 944 ft 81 kts 316°
2026-05-06 17:49 56.71872 16.27039 820 ft 84 kts 255°
2026-05-06 17:49 56.71523 16.26239 643 ft 84 kts 199°
2026-05-06 17:50 56.71010 16.26378 491 ft 72 kts 141°
2026-05-06 17:50 56.70572 16.26823 375 ft 72 kts 143°
2026-05-06 17:50 56.70129 16.27248 240 ft 73 kts 144°
2026-05-06 17:50 56.69686 16.27675 74 ft 71 kts 146°
2026-05-06 17:51 56.69288 16.28055 14 ft 65 kts 153°
2026-05-06 17:51 56.68822 16.28477 181 ft 79 kts 147°
2026-05-06 17:51 56.68318 16.28927 447 ft 83 kts 144°
2026-05-06 17:51 56.67783 16.29436 664 ft 90 kts 145°
2026-05-06 17:52 56.67288 16.30139 887 ft 91 kts 115°
2026-05-06 17:52 56.67285 16.31161 921 ft 82 kts 63°
2026-05-06 17:52 56.67563 16.32024 921 ft 78 kts 60°
2026-05-06 17:52 56.67930 16.32710 955 ft 77 kts 19°
2026-05-06 17:53 56.68469 16.32382 940 ft 95 kts 329°
2026-05-06 17:53 56.69068 16.31649 1012 ft 107 kts 331°
2026-05-06 17:53 56.69676 16.30909 980 ft 103 kts 330°
2026-05-06 17:53 56.70266 16.30204 952 ft 98 kts 333°
2026-05-06 17:54 56.70805 16.29589 959 ft 86 kts 334°
2026-05-06 17:54 56.71309 16.29026 1003 ft 85 kts 334°
2026-05-06 17:54 56.71716 16.28248 889 ft 87 kts 291°
2026-05-06 17:54 56.71619 16.27217 736 ft 85 kts 244°
2026-05-06 17:55 56.71235 16.26431 553 ft 82 kts 193°
2026-05-06 17:55 56.70763 16.26610 401 ft 69 kts 141°
2026-05-06 17:55 56.70345 16.27038 271 ft 69 kts 141°
2026-05-06 17:55 56.69919 16.27443 142 ft 69 kts 142°
2026-05-06 17:56 56.69499 16.27849 18 ft 65 kts 149°
2026-05-06 17:56 56.69097 16.28225 59 ft 75 kts 144°
2026-05-06 17:56 56.68621 16.28666 305 ft 78 kts 144°
2026-05-06 17:56 56.68130 16.29142 587 ft 82 kts 147°
2026-05-06 17:57 56.67650 16.29728 821 ft 82 kts 121°
2026-05-06 17:57 56.67594 16.30690 975 ft 76 kts 70°
2026-05-06 17:57 56.67804 16.31571 1009 ft 78 kts 64°
2026-05-06 17:57 56.68167 16.32296 1049 ft 82 kts 24°
2026-05-06 17:58 56.68760 16.32185 1060 ft 93 kts 343°
2026-05-06 17:58 56.69369 16.31699 1071 ft 97 kts 340°
2026-05-06 17:58 56.69988 16.31184 1067 ft 100 kts 343°
2026-05-06 17:58 56.70629 16.30672 1066 ft 98 kts 337°
2026-05-06 17:59 56.71168 16.30086 1071 ft 88 kts 333°
2026-05-06 17:59 56.71664 16.29439 1131 ft 86 kts 330°
2026-05-06 17:59 56.72143 16.28832 1102 ft 83 kts 333°
2026-05-06 17:59 56.72454 16.27975 993 ft 84 kts 283°
2026-05-06 18:00 56.72338 16.26959 847 ft 83 kts 244°
2026-05-06 18:00 56.72042 16.26080 695 ft 82 kts 228°
2026-05-06 18:00 56.71533 16.25809 582 ft 76 kts 153°
2026-05-06 18:00 56.71085 16.26264 473 ft 76 kts 141°
2026-05-06 18:01 56.70652 16.26728 349 ft 71 kts 142°
2026-05-06 18:01 56.70214 16.27159 241 ft 71 kts 143°
2026-05-06 18:01 56.69780 16.27576 93 ft 71 kts 144°
2026-05-06 18:01 56.69394 16.27948 15 ft 51 kts 147°
2026-05-06 18:02 56.69007 16.28311 93 ft 73 kts 147°
2026-05-06 18:02 56.68542 16.28759 344 ft 75 kts 146°
2026-05-06 18:02 56.68071 16.29206 603 ft 78 kts 147°
2026-05-06 18:02 56.67581 16.29657 822 ft 81 kts 142°
2026-05-06 18:03 56.67338 16.30485 970 ft 71 kts 81°
2026-05-06 18:03 56.67542 16.31235 953 ft 66 kts 62°
2026-05-06 18:03 56.67770 16.31933 943 ft 66 kts 50°
2026-05-06 18:03 56.68242 16.32047 971 ft 78 kts 343°
2026-05-06 18:04 56.68753 16.31634 990 ft 83 kts 342°
2026-05-06 18:04 56.69299 16.31255 1024 ft 85 kts 345°
2026-05-06 18:04 56.69861 16.30849 1032 ft 89 kts 343°
2026-05-06 18:04 56.70425 16.30376 1047 ft 91 kts 339°
2026-05-06 18:05 56.70999 16.29831 1048 ft 93 kts 336°
2026-05-06 18:05 56.71563 16.29196 1023 ft 97 kts 333°
2026-05-06 18:05 56.72073 16.28468 1011 ft 92 kts 307°
2026-05-06 18:05 56.72137 16.27343 876 ft 93 kts 251°
2026-05-06 18:06 56.71851 16.26326 730 ft 88 kts 230°
2026-05-06 18:06 56.71331 16.26059 584 ft 78 kts 150°
2026-05-06 18:06 56.70874 16.26512 434 ft 73 kts 145°
2026-05-06 18:06 56.70438 16.26949 293 ft 71 kts 148°
2026-05-06 18:07 56.70008 16.27357 171 ft 68 kts 142°
2026-05-06 18:07 56.69594 16.27757 28 ft 65 kts 146°
2026-05-06 18:07 56.69228 16.28101 43 ft 67 kts 147°
2026-05-06 18:07 56.68777 16.28490 242 ft 76 kts 147°
2026-05-06 18:08 56.68297 16.28996 466 ft 84 kts 145°
2026-05-06 18:08 56.67794 16.29524 754 ft 85 kts 144°
2026-05-06 18:08 56.67397 16.30248 948 ft 80 kts 100°
2026-05-06 18:08 56.67546 16.31210 948 ft 82 kts 62°
2026-05-06 18:09 56.67828 16.32105 953 ft 82 kts 47°
2026-05-06 18:09 56.68370 16.32306 962 ft 91 kts 344°
2026-05-06 18:09 56.68947 16.31781 956 ft 94 kts 339°
2026-05-06 18:09 56.69550 16.31324 956 ft 94 kts 344°
2026-05-06 18:10 56.70123 16.30729 935 ft 95 kts 331°
2026-05-06 18:10 56.70663 16.30052 889 ft 94 kts 329°
2026-05-06 18:10 56.71184 16.29370 924 ft 90 kts 329°
2026-05-06 18:10 56.71566 16.28514 807 ft 90 kts 288°
2026-05-06 18:11 56.71449 16.27434 645 ft 86 kts 241°
2026-05-06 18:11 56.71077 16.26718 510 ft 75 kts 197°
2026-05-06 18:11 56.70585 16.26812 336 ft 71 kts 150°
2026-05-06 18:11 56.70158 16.27226 204 ft 70 kts 146°
2026-05-06 18:12 56.69720 16.27638 70 ft 70 kts 147°
2026-05-06 18:12 56.69343 16.28007 14 ft 52 kts 149°
2026-05-06 18:12 56.68931 16.28379 150 ft 71 kts 143°
2026-05-06 18:12 56.68480 16.28855 382 ft 77 kts 146°
2026-05-06 18:13 56.67987 16.29390 617 ft 86 kts 141°
2026-05-06 18:13 56.67521 16.30107 854 ft 86 kts 116°
2026-05-06 18:13 56.67484 16.31129 942 ft 86 kts 69°
2026-05-06 18:13 56.67712 16.32151 914 ft 90 kts 58°
2026-05-06 18:14 56.68227 16.32506 901 ft 91 kts 344°
2026-05-06 18:14 56.68797 16.31827 967 ft 101 kts 330°
2026-05-06 18:14 56.69425 16.31110 1001 ft 109 kts 337°
2026-05-06 18:14 56.70064 16.30576 966 ft 94 kts 344°
2026-05-06 18:15 56.70616 16.30138 971 ft 80 kts 340°
2026-05-06 18:15 56.71097 16.29650 956 ft 79 kts 335°
2026-05-06 18:15 56.71558 16.29099 940 ft 79 kts 334°
2026-05-06 18:15 56.71980 16.28435 862 ft 87 kts 303°
2026-05-06 18:16 56.71964 16.27350 765 ft 91 kts 243°
2026-05-06 18:16 56.71599 16.26442 641 ft 90 kts 209°
2026-05-06 18:16 56.71061 16.26388 473 ft 76 kts 154°
2026-05-06 18:16 56.70609 16.26791 355 ft 72 kts 147°
2026-05-06 18:17 56.70166 16.27211 228 ft 72 kts 147°
2026-05-06 18:17 56.69728 16.27627 73 ft 70 kts 144°
2026-05-06 18:17 56.69353 16.27993 14 ft 50 kts 152°
2026-05-06 18:17 56.68955 16.28365 142 ft 71 kts 145°
2026-05-06 18:18 56.68513 16.28827 389 ft 75 kts 148°
2026-05-06 18:18 56.68026 16.29269 647 ft 81 kts 146°
2026-05-06 18:18 56.67584 16.29871 936 ft 76 kts 113°
2026-05-06 18:18 56.67600 16.30757 1057 ft 76 kts 62°
2026-05-06 18:19 56.67863 16.31657 1049 ft 85 kts 61°
2026-05-06 18:19 56.68307 16.32233 1051 ft 85 kts
2026-05-06 18:19 56.68874 16.31741 972 ft 92 kts 335°
2026-05-06 18:19 56.69430 16.31187 939 ft 90 kts 336°
2026-05-06 18:20 56.69963 16.30634 932 ft 87 kts 333°
2026-05-06 18:20 56.70482 16.30069 948 ft 88 kts 335°
2026-05-06 18:20 56.70988 16.29462 955 ft 84 kts 333°
2026-05-06 18:20 56.71400 16.28702 870 ft 91 kts 291°
2026-05-06 18:21 56.71287 16.27592 680 ft 92 kts 242°
2026-05-06 18:21 56.70941 16.26726 464 ft 80 kts 199°
2026-05-06 18:21 56.70478 16.26899 311 ft 70 kts 144°
2026-05-06 18:21 56.70052 16.27309 210 ft 70 kts 146°
2026-05-06 18:22 56.69622 16.27727 42 ft 68 kts 145°
2026-05-06 18:22 56.69243 16.28090 30 ft 68 kts 146°
2026-05-06 18:22 56.68800 16.28507 248 ft 74 kts 144°
2026-05-06 18:22 56.68343 16.28995 516 ft 79 kts 144°
2026-05-06 18:23 56.67891 16.29607 756 ft 82 kts 123°
2026-05-06 18:23 56.67672 16.30616 917 ft 90 kts 94°
2026-05-06 18:23 56.67651 16.31755 1132 ft 91 kts 88°
2026-05-06 18:23 56.67646 16.32945 1285 ft 99 kts 87°
2026-05-06 18:24 56.67678 16.34226 1332 ft 102 kts 85°
2026-05-06 18:24 56.67724 16.35505 1317 ft 101 kts 84°
2026-05-06 18:24 56.67809 16.36782 1271 ft 102 kts 81°
2026-05-06 18:24 56.67912 16.38056 1263 ft 102 kts 81°
2026-05-06 18:25 56.67998 16.39327 1268 ft 101 kts 82°
2026-05-06 18:25 56.68050 16.40604 1257 ft 101 kts 88°
2026-05-06 18:25 56.67997 16.41867 1248 ft 100 kts 93°
2026-05-06 18:25 56.67937 16.43123 1265 ft 100 kts 92°
2026-05-06 18:26 56.67837 16.44392 1288 ft 103 kts 101°
2026-05-06 18:26 56.67499 16.45535 1343 ft 105 kts 128°
2026-05-06 18:26 56.66929 16.46413 1368 ft 109 kts 137°
2026-05-06 18:26 56.66301 16.47178 1422 ft 109 kts 136°
2026-05-06 18:27 56.65763 16.48186 1365 ft 113 kts 122°
2026-05-06 18:27 56.65292 16.49304 1404 ft 109 kts 124°
2026-05-06 18:27 56.64808 16.50368 1401 ft 109 kts 120°
2026-05-06 18:27 56.64330 16.51441 1406 ft 111 kts 129°
2026-05-06 18:28 56.63636 16.52163 1356 ft 123 kts 157°
2026-05-06 18:28 56.62822 16.52580 1367 ft 119 kts 150°
2026-05-06 18:28 56.62078 16.53205 1364 ft 118 kts 147°
2026-05-06 18:28 56.61314 16.53768 1360 ft 120 kts 155°
2026-05-06 18:29 56.60489 16.54088 1361 ft 120 kts 158°
2026-05-06 18:29 56.59762 16.54735 1339 ft 113 kts 130°
2026-05-06 18:29 56.59410 16.55937 1342 ft 106 kts 103°
2026-05-06 18:29 56.59219 16.57234 1324 ft 107 kts 101°
2026-05-06 18:30 56.59029 16.58541 1309 ft 106 kts 92°
2026-05-06 18:30 56.59115 16.59381 1326 ft 103 kts 63°
2026-05-06 18:30 56.59968 16.60066 1334 ft 115 kts 358°
2026-05-06 18:30 56.60479 16.59714 1324 ft 122 kts 341°
2026-05-06 18:31 56.61226 16.58943 1307 ft 124 kts 339°
2026-05-06 18:31 56.61973 16.58177 1314 ft 123 kts 339°
2026-05-06 18:31 56.62731 16.57452 1297 ft 124 kts 340°
2026-05-06 18:31 56.63462 16.56621 1301 ft 124 kts 335°
2026-05-06 18:32 56.64193 16.55787 1295 ft 125 kts 335°
2026-05-06 18:32 56.64916 16.54897 1279 ft 126 kts 333°
2026-05-06 18:32 56.65614 16.53937 1289 ft 126 kts 327°
2026-05-06 18:32 56.66226 16.52782 1213 ft 125 kts 317°
2026-05-06 18:33 56.66740 16.51528 1108 ft 122 kts 312°
2026-05-06 18:33 56.67179 16.50229 1084 ft 121 kts 304°
2026-05-06 18:33 56.67515 16.48840 1064 ft 119 kts 296°
2026-05-06 18:33 56.67779 16.47406 1046 ft 118 kts 287°
2026-05-06 18:34 56.67899 16.45922 998 ft 119 kts 277°
2026-05-06 18:34 56.67945 16.44429 981 ft 117 kts 275°
2026-05-06 18:34 56.67976 16.42981 1003 ft 108 kts 274°
2026-05-06 18:34 56.67997 16.41619 998 ft 109 kts 274°
2026-05-06 18:35 56.68028 16.40242 1022 ft 109 kts 276°
2026-05-06 18:35 56.68095 16.38871 1013 ft 109 kts 279°
2026-05-06 18:35 56.68185 16.37520 1011 ft 109 kts 281°
2026-05-06 18:35 56.68325 16.36169 1043 ft 108 kts 284°
2026-05-06 18:36 56.68494 16.34831 1063 ft 108 kts 288°
2026-05-06 18:36 56.68678 16.33552 1033 ft 102 kts 290°
2026-05-06 18:36 56.68870 16.32370 1005 ft 92 kts 296°
2026-05-06 18:36 56.69204 16.31437 1007 ft 89 kts 320°
2026-05-06 18:37 56.69691 16.30755 1044 ft 90 kts 337°
2026-05-06 18:37 56.70236 16.30233 1006 ft 88 kts 340°
2026-05-06 18:37 56.70778 16.29740 979 ft 85 kts 340°
2026-05-06 18:37 56.71285 16.29247 986 ft 82 kts 338°
2026-05-06 18:38 56.71797 16.28753 933 ft 84 kts 339°
2026-05-06 18:38 56.72326 16.28287 937 ft 88 kts 338°
2026-05-06 18:38 56.72882 16.27774 1032 ft 86 kts 339°
2026-05-06 18:38 56.73397 16.27266 1001 ft 84 kts 336°
2026-05-06 18:39 56.73669 16.26401 926 ft 85 kts 271°
2026-05-06 18:39 56.73437 16.25442 831 ft 84 kts 237°
2026-05-06 18:39 56.73048 16.24678 723 ft 83 kts 197°
2026-05-06 18:40 56.72085 16.25371 617 ft 77 kts 144°
2026-05-06 18:40 56.71608 16.25826 561 ft 78 kts 147°
2026-05-06 18:40 56.71161 16.26256 459 ft 71 kts 146°
2026-05-06 18:40 56.70730 16.26675 335 ft 70 kts 148°
2026-05-06 18:41 56.70305 16.27084 220 ft 70 kts 148°
2026-05-06 18:41 56.69875 16.27487 107 ft 69 kts 146°
2026-05-06 18:41 56.69468 16.27876 17 ft 56 kts 149°
2026-05-06 18:41 56.69186 16.28153 13 ft 36 kts 155°
2026-05-06 18:42 56.69036 16.28292 15 ft 18 kts 148°
2026-05-06 18:42 56.68899 16.28423 16 ft 28 kts 155°
2026-05-06 18:42 56.68708 16.28606 13 ft 30 kts 154°
2026-05-06 18:42 56.68557 16.28723 12 ft 15 kts 187°
2026-05-06 18:43 56.68460 16.28568 12 ft 19 kts 229°
2026-05-06 18:43 56.68439 16.28522 13 ft 1 kts 232°
2026-05-06 18:43 56.68382 16.28412 14 ft 14 kts 229°
2026-05-06 18:43 56.68312 16.28267 14 ft 16 kts 225°
2026-05-06 18:44 56.68226 16.28209 14 ft 15 kts 180°
2026-05-06 18:44 56.68115 16.28207 14 ft 13 kts 176°
2026-05-06 18:44 56.68028 16.28201 14 ft 9 kts 196°
2026-05-06 18:44 56.67974 16.28153 14 ft 5 kts 144°
2026-05-06 18:45 56.67978 16.28168 14 ft 0 kts